Craig E Philip — WDD4083 — position and weather

sailwx.info

Track history (hours):
 
Tides and Currents Weather Stations Pressure Air Temp Water Temp Dewpoint Dewpoint Depression Visibility Wind Speed Wind Dir Waves Ship Positions

Craig E Philip

Owner: Ingram Barge Company LLC, NASHVILLE, TN. More information available from US FCC via Universal Licensing System and Coast Guard Vessel Documentation Center.

Last reported at 2017-Dec-10 08:31 UTC. Time now 2017-Dec-12 12:26 UTC.
Position N 30°03' W 090°32'.

Length 61 m.

Type: Towing. MMSI: 367139970.

Date/timePositionNaut miles runAvg speedWind from/ knotsBaromVisibWave heightAir tempDewpointWater temp
2017-Dec-10 08:31N 30°03' W 090°32'0 7.2
2017-Dec-10 08:29N 30°03' W 090°32'120 2.5
2017-Dec-08 08:02N 31°59' W 091°06'1 7.8
2017-Dec-08 07:51N 32°00' W 091°05'6 7.1
2017-Dec-08 07:00N 32°06' W 091°06'2 4.3
2017-Dec-08 06:30N 32°08' W 091°04'3 6.0
2017-Dec-08 06:00N 32°08' W 091°01'3 6.1
2017-Dec-08 05:31N 32°11' W 091°00'3 6.4
2017-Dec-08 05:00N 32°14' W 090°59'4 7.7
2017-Dec-08 04:30N 32°17' W 090°57'3 5.7
2017-Dec-08 04:00N 32°19' W 090°54'3 5.6
2017-Dec-08 03:30N 32°21' W 090°57'3 6.2
2017-Dec-08 03:00N 32°22' W 091°00'4 7.4
2017-Dec-08 02:30N 32°25' W 091°01'4 8.9
2017-Dec-08 02:00N 32°27' W 091°06'5 7.6
2017-Dec-08 01:25N 32°32' W 091°06'3 7.7
2017-Dec-08 01:00N 32°35' W 091°07'  
2017-Nov-30 18:11N 32°40' W 091°07'1 5.1
2017-Nov-30 18:00N 32°40' W 091°08'2 4.4
2017-Nov-30 17:30N 32°38' W 091°09'2 4.4
2017-Nov-30 17:00N 32°36' W 091°09'2 5.0
2017-Nov-30 16:30N 32°34' W 091°07'2 4.6
2017-Nov-30 16:00N 32°32' W 091°06'3 5.7
2017-Nov-30 15:30N 32°29' W 091°07'3 5.4
2017-Nov-30 15:00N 32°27' W 091°05'3 5.2
2017-Nov-30 14:30N 32°26' W 091°02'2 5.0
2017-Nov-30 14:00N 32°25' W 090°60'2 4.3
2017-Nov-30 13:30N 32°23' W 090°60'2 3.7
2017-Nov-30 13:00N 32°21' W 090°59'1 2.0
2017-Nov-30 12:30N 32°21' W 090°58'0 0.1
2017-Nov-30 12:01N 32°21' W 090°58'2 4.3
2017-Nov-30 11:30N 32°21' W 090°55'2 3.3
2017-Nov-30 11:00N 32°20' W 090°54'3 5.2
2017-Nov-30 10:30N 32°18' W 090°56'3 5.3
2017-Nov-30 10:00N 32°16' W 090°58'2 4.5
2017-Nov-30 09:30N 32°14' W 090°59'3 5.0
2017-Nov-30 09:00N 32°11' W 090°60'  
Track history (hours):
 
Tides and Currents Weather Stations Pressure Air Temp Water Temp Dewpoint Dewpoint Depression Visibility Wind Speed Wind Dir Waves Ship Positions

Craig E Philip

Owner: Ingram Barge Company LLC, NASHVILLE, TN. More information available from US FCC via Universal Licensing System and Coast Guard Vessel Documentation Center.

Last reported at 2017-Dec-10 08:31 UTC. Time now 2017-Dec-12 12:26 UTC.
Position N 30°03' W 090°32'.

Length 61 m.

Type: Towing. MMSI: 367139970.

Date/timePositionNaut miles runAvg speedWind from/ knotsBaromVisibWave heightAir tempDewpointWater temp
2017-Dec-10 08:31N 30°03' W 090°32'0 7.2
2017-Dec-10 08:29N 30°03' W 090°32'120 2.5
2017-Dec-08 08:02N 31°59' W 091°06'1 7.8
2017-Dec-08 07:51N 32°00' W 091°05'6 7.1
2017-Dec-08 07:00N 32°06' W 091°06'2 4.3
2017-Dec-08 06:30N 32°08' W 091°04'3 6.0
2017-Dec-08 06:00N 32°08' W 091°01'3 6.1
2017-Dec-08 05:31N 32°11' W 091°00'3 6.4
2017-Dec-08 05:00N 32°14' W 090°59'4 7.7
2017-Dec-08 04:30N 32°17' W 090°57'3 5.7
2017-Dec-08 04:00N 32°19' W 090°54'3 5.6
2017-Dec-08 03:30N 32°21' W 090°57'3 6.2
2017-Dec-08 03:00N 32°22' W 091°00'4 7.4
2017-Dec-08 02:30N 32°25' W 091°01'4 8.9
2017-Dec-08 02:00N 32°27' W 091°06'5 7.6
2017-Dec-08 01:25N 32°32' W 091°06'3 7.7
2017-Dec-08 01:00N 32°35' W 091°07'  
2017-Nov-30 18:11N 32°40' W 091°07'1 5.1
2017-Nov-30 18:00N 32°40' W 091°08'2 4.4
2017-Nov-30 17:30N 32°38' W 091°09'2 4.4
2017-Nov-30 17:00N 32°36' W 091°09'2 5.0
2017-Nov-30 16:30N 32°34' W 091°07'2 4.6
2017-Nov-30 16:00N 32°32' W 091°06'3 5.7
2017-Nov-30 15:30N 32°29' W 091°07'3 5.4
2017-Nov-30 15:00N 32°27' W 091°05'3 5.2
2017-Nov-30 14:30N 32°26' W 091°02'2 5.0
2017-Nov-30 14:00N 32°25' W 090°60'2 4.3
2017-Nov-30 13:30N 32°23' W 090°60'2 3.7
2017-Nov-30 13:00N 32°21' W 090°59'1 2.0
2017-Nov-30 12:30N 32°21' W 090°58'0 0.1
2017-Nov-30 12:01N 32°21' W 090°58'2 4.3
2017-Nov-30 11:30N 32°21' W 090°55'2 3.3
2017-Nov-30 11:00N 32°20' W 090°54'3 5.2
2017-Nov-30 10:30N 32°18' W 090°56'3 5.3
2017-Nov-30 10:00N 32°16' W 090°58'2 4.5
2017-Nov-30 09:30N 32°14' W 090°59'3 5.0
2017-Nov-30 09:00N 32°11' W 090°60'  

Dump ship's entire track history